sensor_id;sensor_type;location;lat;lon;timestamp;pressure;altitude;pressure_sealevel;temperature;humidity
12781;BME280;6454;43.304;24.344;2024-02-26T00:02:16;99771.25;;;7.06;76.03
12781;BME280;6454;43.304;24.344;2024-02-26T00:04:41;99781.75;;;7.13;74.38
12781;BME280;6454;43.304;24.344;2024-02-26T00:07:07;99776.06;;;7.09;74.11
12781;BME280;6454;43.304;24.344;2024-02-26T00:09:32;99761.50;;;7.00;75.25
12781;BME280;6454;43.304;24.344;2024-02-26T00:12:01;99766.97;;;7.00;74.64
12781;BME280;6454;43.304;24.344;2024-02-26T00:14:29;99771.94;;;6.98;74.99
12781;BME280;6454;43.304;24.344;2024-02-26T00:16:54;99767.13;;;6.90;75.70
12781;BME280;6454;43.304;24.344;2024-02-26T00:19:20;99745.19;;;6.82;75.79
12781;BME280;6454;43.304;24.344;2024-02-26T00:21:45;99761.06;;;6.93;74.44
12781;BME280;6454;43.304;24.344;2024-02-26T00:24:11;99726.44;;;6.75;75.41
12781;BME280;6454;43.304;24.344;2024-02-26T00:26:36;99761.50;;;7.00;75.19
12781;BME280;6454;43.304;24.344;2024-02-26T00:29:02;99756.72;;;6.92;75.57
12781;BME280;6454;43.304;24.344;2024-02-26T00:31:27;99754.69;;;6.84;74.25
12781;BME280;6454;43.304;24.344;2024-02-26T00:33:53;99743.44;;;6.86;74.23
12781;BME280;6454;43.304;24.344;2024-02-26T00:36:18;99748.53;;;6.92;74.59
12781;BME280;6454;43.304;24.344;2024-02-26T00:38:44;99750.81;;;6.85;73.77
12781;BME280;6454;43.304;24.344;2024-02-26T00:41:11;99743.31;;;6.77;73.90
12781;BME280;6454;43.304;24.344;2024-02-26T00:43:37;99752.56;;;6.81;74.39
12781;BME280;6454;43.304;24.344;2024-02-26T00:46:05;99748.28;;;6.75;73.67
12781;BME280;6454;43.304;24.344;2024-02-26T00:48:30;99753.75;;;6.75;74.87
12781;BME280;6454;43.304;24.344;2024-02-26T00:50:56;99748.97;;;6.67;75.71
12781;BME280;6454;43.304;24.344;2024-02-26T00:53:21;99755.06;;;6.78;75.67
12781;BME280;6454;43.304;24.344;2024-02-26T00:55:47;99741.72;;;6.76;74.71
12781;BME280;6454;43.304;24.344;2024-02-26T00:58:12;99733.91;;;6.70;73.19
12781;BME280;6454;43.304;24.344;2024-02-26T01:00:38;99755.53;;;6.66;74.20
12781;BME280;6454;43.304;24.344;2024-02-26T01:03:04;99759.38;;;6.65;75.11
12781;BME280;6454;43.304;24.344;2024-02-26T01:05:29;99756.94;;;6.64;75.41
12781;BME280;6454;43.304;24.344;2024-02-26T01:07:55;99743.75;;;6.52;75.39
12781;BME280;6454;43.304;24.344;2024-02-26T01:10:20;99756.00;;;6.54;74.39
12781;BME280;6454;43.304;24.344;2024-02-26T01:12:46;99754.44;;;6.48;74.59
12781;BME280;6454;43.304;24.344;2024-02-26T01:15:12;99744.72;;;6.42;74.31
12781;BME280;6454;43.304;24.344;2024-02-26T01:17:38;99742.66;;;6.34;75.01
12781;BME280;6454;43.304;24.344;2024-02-26T01:20:05;99743.97;;;6.37;75.75
12781;BME280;6454;43.304;24.344;2024-02-26T01:22:30;99735.72;;;6.42;74.24
12781;BME280;6454;43.304;24.344;2024-02-26T01:24:56;99747.66;;;6.46;75.25
12781;BME280;6454;43.304;24.344;2024-02-26T01:27:22;99743.31;;;6.45;75.48
12781;BME280;6454;43.304;24.344;2024-02-26T01:29:52;99751.50;;;6.45;75.10
12781;BME280;6454;43.304;24.344;2024-02-26T01:32:17;99741.25;;;6.37;74.38
12781;BME280;6454;43.304;24.344;2024-02-26T01:34:43;99755.63;;;6.42;75.13
12781;BME280;6454;43.304;24.344;2024-02-26T01:37:08;99754.00;;;6.41;75.48
12781;BME280;6454;43.304;24.344;2024-02-26T01:39:34;99727.25;;;6.25;74.83
12781;BME280;6454;43.304;24.344;2024-02-26T01:41:59;99747.53;;;6.37;75.13
12781;BME280;6454;43.304;24.344;2024-02-26T01:44:26;99746.28;;;6.30;75.31
12781;BME280;6454;43.304;24.344;2024-02-26T01:46:52;99748.13;;;6.34;74.39
12781;BME280;6454;43.304;24.344;2024-02-26T01:49:18;99732.25;;;6.36;74.41
12781;BME280;6454;43.304;24.344;2024-02-26T01:51:45;99719.75;;;6.17;75.58
12781;BME280;6454;43.304;24.344;2024-02-26T01:54:11;99734.19;;;6.17;76.23
12781;BME280;6454;43.304;24.344;2024-02-26T01:56:38;99728.34;;;6.24;75.12
12781;BME280;6454;43.304;24.344;2024-02-26T01:59:05;99736.84;;;6.22;75.72
12781;BME280;6454;43.304;24.344;2024-02-26T02:01:31;99733.44;;;6.12;75.69
12781;BME280;6454;43.304;24.344;2024-02-26T02:03:58;99742.34;;;6.17;75.67
12781;BME280;6454;43.304;24.344;2024-02-26T02:06:25;99732.19;;;6.23;75.25
12781;BME280;6454;43.304;24.344;2024-02-26T02:08:50;99731.84;;;6.11;75.54
12781;BME280;6454;43.304;24.344;2024-02-26T02:11:16;99712.75;;;5.92;74.61
12781;BME280;6454;43.304;24.344;2024-02-26T02:13:42;99721.28;;;6.04;75.84
12781;BME280;6454;43.304;24.344;2024-02-26T02:16:08;99731.38;;;6.04;75.92
12781;BME280;6454;43.304;24.344;2024-02-26T02:18:33;99737.72;;;6.18;75.39
12781;BME280;6454;43.304;24.344;2024-02-26T02:21:01;99733.75;;;6.10;75.57
12781;BME280;6454;43.304;24.344;2024-02-26T02:23:27;99736.81;;;6.04;75.78
12781;BME280;6454;43.304;24.344;2024-02-26T02:25:52;99749.81;;;6.12;75.98
12781;BME280;6454;43.304;24.344;2024-02-26T02:28:19;99738.88;;;6.12;76.61
12781;BME280;6454;43.304;24.344;2024-02-26T02:30:45;99749.22;;;6.15;75.75
12781;BME280;6454;43.304;24.344;2024-02-26T02:33:10;99748.72;;;6.13;76.79
12781;BME280;6454;43.304;24.344;2024-02-26T02:35:37;99747.78;;;6.22;76.32
12781;BME280;6454;43.304;24.344;2024-02-26T02:38:03;99744.16;;;6.08;76.90
12781;BME280;6454;43.304;24.344;2024-02-26T02:40:28;99749.59;;;6.08;77.30
12781;BME280;6454;43.304;24.344;2024-02-26T02:42:54;99746.50;;;6.15;76.85
12781;BME280;6454;43.304;24.344;2024-02-26T02:45:19;99755.13;;;6.22;76.39
12781;BME280;6454;43.304;24.344;2024-02-26T02:47:45;99757.31;;;6.20;76.98
12781;BME280;6454;43.304;24.344;2024-02-26T02:50:10;99758.13;;;6.20;77.69
12781;BME280;6454;43.304;24.344;2024-02-26T02:52:36;99751.34;;;6.18;76.77
12781;BME280;6454;43.304;24.344;2024-02-26T02:55:01;99754.09;;;6.18;76.96
12781;BME280;6454;43.304;24.344;2024-02-26T02:57:27;99772.75;;;6.29;76.19
12781;BME280;6454;43.304;24.344;2024-02-26T02:59:53;99757.19;;;6.30;75.78
12781;BME280;6454;43.304;24.344;2024-02-26T03:02:18;99752.09;;;6.23;77.04
12781;BME280;6454;43.304;24.344;2024-02-26T03:04:44;99753.50;;;6.21;76.59
12781;BME280;6454;43.304;24.344;2024-02-26T03:07:09;99730.72;;;6.12;77.32
12781;BME280;6454;43.304;24.344;2024-02-26T03:09:34;99759.84;;;6.35;76.04
12781;BME280;6454;43.304;24.344;2024-02-26T03:12:00;99755.22;;;6.35;76.53
12781;BME280;6454;43.304;24.344;2024-02-26T03:14:25;99772.75;;;6.48;76.07
12781;BME280;6454;43.304;24.344;2024-02-26T03:16:54;99769.50;;;6.46;76.71
12781;BME280;6454;43.304;24.344;2024-02-26T03:19:20;99744.28;;;6.35;76.20
12781;BME280;6454;43.304;24.344;2024-02-26T03:21:45;99761.91;;;6.43;75.69
12781;BME280;6454;43.304;24.344;2024-02-26T03:24:11;99756.81;;;6.36;76.98
12781;BME280;6454;43.304;24.344;2024-02-26T03:26:37;99765.72;;;6.42;76.99
12781;BME280;6454;43.304;24.344;2024-02-26T03:29:03;99754.06;;;6.36;76.26
12781;BME280;6454;43.304;24.344;2024-02-26T03:31:28;99756.03;;;6.36;77.40
12781;BME280;6454;43.304;24.344;2024-02-26T03:33:54;99758.59;;;6.46;76.92
12781;BME280;6454;43.304;24.344;2024-02-26T03:36:19;99748.34;;;6.38;76.82
12781;BME280;6454;43.304;24.344;2024-02-26T03:38:46;99744.06;;;6.32;76.45
12781;BME280;6454;43.304;24.344;2024-02-26T03:41:12;99760.50;;;6.27;77.66
12781;BME280;6454;43.304;24.344;2024-02-26T03:43:37;99760.94;;;6.34;77.03
12781;BME280;6454;43.304;24.344;2024-02-26T03:46:03;99767.53;;;6.33;77.83
12781;BME280;6454;43.304;24.344;2024-02-26T03:48:28;99751.94;;;6.33;77.29
12781;BME280;6454;43.304;24.344;2024-02-26T03:50:54;99764.13;;;6.41;77.25
12781;BME280;6454;43.304;24.344;2024-02-26T03:53:19;99749.59;;;6.45;76.80
12781;BME280;6454;43.304;24.344;2024-02-26T03:55:45;99747.16;;;6.44;76.91
12781;BME280;6454;43.304;24.344;2024-02-26T03:58:12;99731.75;;;6.34;77.54
12781;BME280;6454;43.304;24.344;2024-02-26T04:00:37;99734.31;;;6.26;77.13
12781;BME280;6454;43.304;24.344;2024-02-26T04:03:03;99750.25;;;6.37;78.02
12781;BME280;6454;43.304;24.344;2024-02-26T04:05:28;99736.31;;;6.39;78.50
12781;BME280;6454;43.304;24.344;2024-02-26T04:07:54;99730.97;;;6.47;76.44
12781;BME280;6454;43.304;24.344;2024-02-26T04:10:19;99736.06;;;6.54;77.15
12781;BME280;6454;43.304;24.344;2024-02-26T04:12:45;99745.28;;;6.58;77.93
12781;BME280;6454;43.304;24.344;2024-02-26T04:15:11;99736.81;;;6.59;76.70
12781;BME280;6454;43.304;24.344;2024-02-26T04:17:37;99724.72;;;6.47;76.90
12781;BME280;6454;43.304;24.344;2024-02-26T04:20:03;99726.16;;;6.58;77.64
12781;BME280;6454;43.304;24.344;2024-02-26T04:22:30;99728.78;;;6.49;77.18
12781;BME280;6454;43.304;24.344;2024-02-26T04:24:56;99720.88;;;6.48;77.73
12781;BME280;6454;43.304;24.344;2024-02-26T04:27:23;99725.34;;;6.44;76.97
12781;BME280;6454;43.304;24.344;2024-02-26T04:29:48;99710.66;;;6.40;77.24
12781;BME280;6454;43.304;24.344;2024-02-26T04:32:14;99728.47;;;6.51;77.32
12781;BME280;6454;43.304;24.344;2024-02-26T04:34:39;99728.16;;;6.52;77.40
12781;BME280;6454;43.304;24.344;2024-02-26T04:37:05;99724.56;;;6.57;77.68
12781;BME280;6454;43.304;24.344;2024-02-26T04:39:31;99724.13;;;6.50;76.62
12781;BME280;6454;43.304;24.344;2024-02-26T04:41:56;99733.84;;;6.56;76.61
12781;BME280;6454;43.304;24.344;2024-02-26T04:44:22;99743.28;;;6.64;77.21
12781;BME280;6454;43.304;24.344;2024-02-26T04:46:48;99745.50;;;6.62;77.61
12781;BME280;6454;43.304;24.344;2024-02-26T04:49:13;99734.44;;;6.53;77.84
12781;BME280;6454;43.304;24.344;2024-02-26T04:51:39;99726.97;;;6.58;77.40
12781;BME280;6454;43.304;24.344;2024-02-26T04:54:04;99748.66;;;6.69;76.92
12781;BME280;6454;43.304;24.344;2024-02-26T04:56:30;99739.91;;;6.53;77.55
12781;BME280;6454;43.304;24.344;2024-02-26T04:58:55;99744.84;;;6.51;77.53
12781;BME280;6454;43.304;24.344;2024-02-26T05:01:21;99757.00;;;6.58;76.46
12781;BME280;6454;43.304;24.344;2024-02-26T05:03:46;99757.00;;;6.58;76.35
12781;BME280;6454;43.304;24.344;2024-02-26T05:06:12;99756.94;;;6.64;77.48
12781;BME280;6454;43.304;24.344;2024-02-26T05:08:38;99752.97;;;6.56;76.58
12781;BME280;6454;43.304;24.344;2024-02-26T05:11:04;99753.28;;;6.54;77.31
12781;BME280;6454;43.304;24.344;2024-02-26T05:13:30;99764.97;;;6.55;77.39
12781;BME280;6454;43.304;24.344;2024-02-26T05:15:55;99775.91;;;6.55;76.50
12781;BME280;6454;43.304;24.344;2024-02-26T05:18:22;99763.97;;;6.51;77.05
12781;BME280;6454;43.304;24.344;2024-02-26T05:20:48;99769.84;;;6.58;77.11
12781;BME280;6454;43.304;24.344;2024-02-26T05:23:13;99769.06;;;6.57;77.66
12781;BME280;6454;43.304;24.344;2024-02-26T05:25:39;99764.56;;;6.48;78.08
12781;BME280;6454;43.304;24.344;2024-02-26T05:28:05;99777.59;;;6.51;77.31
12781;BME280;6454;43.304;24.344;2024-02-26T05:30:30;99772.88;;;6.56;77.91
12781;BME280;6454;43.304;24.344;2024-02-26T05:32:56;99793.22;;;6.64;77.37
12781;BME280;6454;43.304;24.344;2024-02-26T05:35:21;99769.84;;;6.58;77.99
12781;BME280;6454;43.304;24.344;2024-02-26T05:37:47;99782.63;;;6.63;77.95
12781;BME280;6454;43.304;24.344;2024-02-26T05:40:12;99777.53;;;6.56;78.10
12781;BME280;6454;43.304;24.344;2024-02-26T05:42:38;99790.28;;;6.60;78.14
12781;BME280;6454;43.304;24.344;2024-02-26T05:45:04;99800.84;;;6.67;78.96
12781;BME280;6454;43.304;24.344;2024-02-26T05:47:34;99796.91;;;6.73;78.13
12781;BME280;6454;43.304;24.344;2024-02-26T05:50:00;99804.94;;;6.83;77.63
12781;BME280;6454;43.304;24.344;2024-02-26T05:52:28;99786.28;;;6.72;78.96
12781;BME280;6454;43.304;24.344;2024-02-26T05:54:56;99794.09;;;6.78;78.94
12781;BME280;6454;43.304;24.344;2024-02-26T05:57:22;99810.41;;;6.83;78.38
12781;BME280;6454;43.304;24.344;2024-02-26T05:59:47;99805.34;;;6.90;78.52
12781;BME280;6454;43.304;24.344;2024-02-26T06:02:13;99817.16;;;7.04;78.82
12781;BME280;6454;43.304;24.344;2024-02-26T06:04:38;99818.19;;;7.08;77.24
12781;BME280;6454;43.304;24.344;2024-02-26T06:07:04;99809.69;;;7.10;77.73
12781;BME280;6454;43.304;24.344;2024-02-26T06:09:30;99799.56;;;7.10;77.32
12781;BME280;6454;43.304;24.344;2024-02-26T06:11:56;99795.91;;;7.15;77.63
12781;BME280;6454;43.304;24.344;2024-02-26T06:14:21;99817.31;;;7.27;77.08
12781;BME280;6454;43.304;24.344;2024-02-26T06:16:47;99812.34;;;7.29;77.69
12781;BME280;6454;43.304;24.344;2024-02-26T06:19:13;99828.16;;;7.32;77.27
12781;BME280;6454;43.304;24.344;2024-02-26T06:21:38;99824.53;;;7.36;78.68
12781;BME280;6454;43.304;24.344;2024-02-26T06:24:04;99838.91;;;7.42;76.93
12781;BME280;6454;43.304;24.344;2024-02-26T06:26:30;99830.19;;;7.40;77.39
12781;BME280;6454;43.304;24.344;2024-02-26T06:28:55;99831.53;;;7.56;78.49
12781;BME280;6454;43.304;24.344;2024-02-26T06:31:24;99833.97;;;7.57;77.78
12781;BME280;6454;43.304;24.344;2024-02-26T06:33:49;99816.25;;;7.55;78.33
12781;BME280;6454;43.304;24.344;2024-02-26T06:36:15;99821.13;;;7.58;78.96
12781;BME280;6454;43.304;24.344;2024-02-26T06:38:41;99838.97;;;7.69;78.48
12781;BME280;6454;43.304;24.344;2024-02-26T06:41:06;99850.31;;;7.76;78.46
12781;BME280;6454;43.304;24.344;2024-02-26T06:43:32;99850.69;;;7.83;77.88
12781;BME280;6454;43.304;24.344;2024-02-26T06:46:00;99861.97;;;7.95;77.91
12781;BME280;6454;43.304;24.344;2024-02-26T06:48:25;99850.19;;;7.95;78.09
12781;BME280;6454;43.304;24.344;2024-02-26T06:50:51;99855.56;;;8.00;78.60
12781;BME280;6454;43.304;24.344;2024-02-26T06:53:16;99844.84;;;8.03;77.88
12781;BME280;6454;43.304;24.344;2024-02-26T06:55:42;99850.69;;;8.10;77.11
12781;BME280;6454;43.304;24.344;2024-02-26T06:58:08;99850.19;;;8.22;78.18
12781;BME280;6454;43.304;24.344;2024-02-26T07:00:34;99838.13;;;8.23;79.13
12781;BME280;6454;43.304;24.344;2024-02-26T07:03:00;99833.28;;;8.33;78.78
12781;BME280;6454;43.304;24.344;2024-02-26T07:05:26;99844.13;;;8.38;77.95
12781;BME280;6454;43.304;24.344;2024-02-26T07:07:51;99852.59;;;8.51;77.63
12781;BME280;6454;43.304;24.344;2024-02-26T07:10:17;99860.59;;;8.61;79.36
12781;BME280;6454;43.304;24.344;2024-02-26T07:12:42;99856.72;;;8.62;77.98
12781;BME280;6454;43.304;24.344;2024-02-26T07:15:09;99868.28;;;8.72;78.30
12781;BME280;6454;43.304;24.344;2024-02-26T07:17:35;99854.69;;;8.67;77.23
12781;BME280;6454;43.304;24.344;2024-02-26T07:20:00;99857.50;;;8.76;77.24
12781;BME280;6454;43.304;24.344;2024-02-26T07:22:26;99850.25;;;8.93;77.14
12781;BME280;6454;43.304;24.344;2024-02-26T07:24:51;99841.09;;;8.98;76.11
12781;BME280;6454;43.304;24.344;2024-02-26T07:27:20;99851.66;;;9.13;75.56
12781;BME280;6454;43.304;24.344;2024-02-26T07:29:46;99844.59;;;9.12;78.04
12781;BME280;6454;43.304;24.344;2024-02-26T07:32:12;99858.53;;;9.24;77.92
12781;BME280;6454;43.304;24.344;2024-02-26T07:34:37;99848.22;;;9.30;76.32
12781;BME280;6454;43.304;24.344;2024-02-26T07:37:07;99869.97;;;9.48;77.71
12781;BME280;6454;43.304;24.344;2024-02-26T07:39:32;99858.56;;;9.55;76.05
12781;BME280;6454;43.304;24.344;2024-02-26T07:41:58;99842.28;;;9.58;76.02
12781;BME280;6454;43.304;24.344;2024-02-26T07:44:23;99860.72;;;9.67;75.71
12781;BME280;6454;43.304;24.344;2024-02-26T07:46:49;99858.81;;;9.76;77.75
12781;BME280;6454;43.304;24.344;2024-02-26T07:49:14;99850.31;;;9.86;76.09
12781;BME280;6454;43.304;24.344;2024-02-26T07:51:40;99850.81;;;9.88;76.11
12781;BME280;6454;43.304;24.344;2024-02-26T07:54:05;99857.19;;;10.05;76.08
12781;BME280;6454;43.304;24.344;2024-02-26T07:56:31;99854.66;;;10.18;76.11
12781;BME280;6454;43.304;24.344;2024-02-26T07:58:56;99856.00;;;10.29;76.81
12781;BME280;6454;43.304;24.344;2024-02-26T08:01:22;99833.19;;;10.28;75.84
12781;BME280;6454;43.304;24.344;2024-02-26T08:03:48;99847.63;;;10.42;75.83
12781;BME280;6454;43.304;24.344;2024-02-26T08:06:14;99823.69;;;10.34;75.36
12781;BME280;6454;43.304;24.344;2024-02-26T08:08:39;99857.34;;;10.57;74.57
12781;BME280;6454;43.304;24.344;2024-02-26T08:11:05;99849.25;;;10.60;75.22
12781;BME280;6454;43.304;24.344;2024-02-26T08:13:30;99843.28;;;10.67;73.61
12781;BME280;6454;43.304;24.344;2024-02-26T08:15:56;99853.47;;;10.75;73.85
12781;BME280;6454;43.304;24.344;2024-02-26T08:18:21;99854.94;;;10.81;73.14
12781;BME280;6454;43.304;24.344;2024-02-26T08:20:47;99872.41;;;10.94;73.14
12781;BME280;6454;43.304;24.344;2024-02-26T08:23:14;99851.38;;;10.98;72.50
12781;BME280;6454;43.304;24.344;2024-02-26T08:25:39;99844.91;;;11.11;73.44
12781;BME280;6454;43.304;24.344;2024-02-26T08:28:05;99868.84;;;11.19;73.20
12781;BME280;6454;43.304;24.344;2024-02-26T08:30:30;99858.66;;;11.19;72.99
12781;BME280;6454;43.304;24.344;2024-02-26T08:32:56;99857.34;;;11.25;73.42
12781;BME280;6454;43.304;24.344;2024-02-26T08:35:21;99864.75;;;11.33;72.57
12781;BME280;6454;43.304;24.344;2024-02-26T08:37:47;99868.31;;;11.43;73.16
12781;BME280;6454;43.304;24.344;2024-02-26T08:40:14;99872.00;;;11.55;72.82
12781;BME280;6454;43.304;24.344;2024-02-26T08:42:39;99866.66;;;11.59;72.93
12781;BME280;6454;43.304;24.344;2024-02-26T08:45:05;99867.63;;;11.71;73.17
12781;BME280;6454;43.304;24.344;2024-02-26T08:47:31;99872.59;;;11.86;73.03
12781;BME280;6454;43.304;24.344;2024-02-26T08:49:58;99867.25;;;11.90;73.08
12781;BME280;6454;43.304;24.344;2024-02-26T08:52:23;99866.44;;;11.89;71.85
12781;BME280;6454;43.304;24.344;2024-02-26T08:54:49;99868.50;;;12.01;73.39
12781;BME280;6454;43.304;24.344;2024-02-26T08:57:15;99860.06;;;12.06;72.44
12781;BME280;6454;43.304;24.344;2024-02-26T08:59:40;99857.44;;;12.10;73.13
12781;BME280;6454;43.304;24.344;2024-02-26T09:02:06;99856.59;;;12.18;71.77
12781;BME280;6454;43.304;24.344;2024-02-26T09:04:33;99875.63;;;12.31;72.26
12781;BME280;6454;43.304;24.344;2024-02-26T09:06:59;99857.81;;;12.29;71.47
12781;BME280;6454;43.304;24.344;2024-02-26T09:09:24;99857.81;;;12.29;72.23
12781;BME280;6454;43.304;24.344;2024-02-26T09:11:51;99871.47;;;12.25;70.67
12781;BME280;6454;43.304;24.344;2024-02-26T09:14:18;99861.94;;;12.23;69.41
12781;BME280;6454;43.304;24.344;2024-02-26T09:16:43;99869.84;;;12.24;69.89
12781;BME280;6454;43.304;24.344;2024-02-26T09:19:09;99857.53;;;12.22;70.40
12781;BME280;6454;43.304;24.344;2024-02-26T09:21:34;99855.91;;;12.21;71.51
12781;BME280;6454;43.304;24.344;2024-02-26T09:24:00;99859.19;;;12.23;69.58
12781;BME280;6454;43.304;24.344;2024-02-26T09:26:25;99867.53;;;12.35;71.24
12781;BME280;6454;43.304;24.344;2024-02-26T09:28:51;99860.09;;;12.27;69.81
12781;BME280;6454;43.304;24.344;2024-02-26T09:31:17;99862.00;;;12.35;70.56
12781;BME280;6454;43.304;24.344;2024-02-26T09:33:43;99870.38;;;12.47;69.99
12781;BME280;6454;43.304;24.344;2024-02-26T09:36:09;99852.56;;;12.44;68.89
12781;BME280;6454;43.304;24.344;2024-02-26T09:38:36;99872.28;;;12.55;69.65
12781;BME280;6454;43.304;24.344;2024-02-26T09:41:06;99868.72;;;12.54;68.47
12781;BME280;6454;43.304;24.344;2024-02-26T09:43:35;99871.72;;;12.62;68.49
12781;BME280;6454;43.304;24.344;2024-02-26T09:46:05;99853.31;;;12.53;67.93
12781;BME280;6454;43.304;24.344;2024-02-26T09:48:32;99851.34;;;12.54;68.64
12781;BME280;6454;43.304;24.344;2024-02-26T09:51:01;99854.38;;;12.61;69.07
12781;BME280;6454;43.304;24.344;2024-02-26T09:53:29;99859.53;;;12.71;69.20
12781;BME280;6454;43.304;24.344;2024-02-26T09:55:57;99843.78;;;12.72;68.18
12781;BME280;6454;43.304;24.344;2024-02-26T09:58:24;99848.09;;;12.81;68.20
12781;BME280;6454;43.304;24.344;2024-02-26T10:00:53;99848.34;;;12.88;66.59
12781;BME280;6454;43.304;24.344;2024-02-26T10:03:22;99844.44;;;12.89;66.57
12781;BME280;6454;43.304;24.344;2024-02-26T10:05:51;99836.63;;;12.91;67.19
12781;BME280;6454;43.304;24.344;2024-02-26T10:08:20;99818.88;;;12.80;68.57
12781;BME280;6454;43.304;24.344;2024-02-26T10:10:47;99846.13;;;13.02;66.21
12781;BME280;6454;43.304;24.344;2024-02-26T10:13:13;99833.94;;;13.03;67.07
12781;BME280;6454;43.304;24.344;2024-02-26T10:15:38;99812.84;;;13.07;65.82
12781;BME280;6454;43.304;24.344;2024-02-26T10:18:05;99821.72;;;13.13;66.84
12781;BME280;6454;43.304;24.344;2024-02-26T10:20:31;99822.53;;;13.13;67.47
12781;BME280;6454;43.304;24.344;2024-02-26T10:22:57;99809.78;;;13.21;67.21
12781;BME280;6454;43.304;24.344;2024-02-26T10:25:22;99823.63;;;13.33;66.15
12781;BME280;6454;43.304;24.344;2024-02-26T10:27:48;99794.94;;;13.13;65.88
12781;BME280;6454;43.304;24.344;2024-02-26T10:32:46;99806.25;;;13.33;66.48
12781;BME280;6454;43.304;24.344;2024-02-26T10:35:16;99809.16;;;13.36;65.65
12781;BME280;6454;43.304;24.344;2024-02-26T10:37:43;99808.03;;;13.49;66.09
12781;BME280;6454;43.304;24.344;2024-02-26T10:40:15;99810.13;;;13.64;66.45
12781;BME280;6454;43.304;24.344;2024-02-26T10:42:41;99800.25;;;13.76;66.73
12781;BME280;6454;43.304;24.344;2024-02-26T10:45:08;99804.06;;;13.95;66.41
12781;BME280;6454;43.304;24.344;2024-02-26T10:47:35;99793.59;;;14.01;65.81
12781;BME280;6454;43.304;24.344;2024-02-26T10:50:02;99795.88;;;14.11;64.83
12781;BME280;6454;43.304;24.344;2024-02-26T10:52:33;99799.56;;;14.15;64.78
12781;BME280;6454;43.304;24.344;2024-02-26T10:55:01;99800.16;;;14.20;64.41
12781;BME280;6454;43.304;24.344;2024-02-26T10:57:36;99794.63;;;14.20;65.20
12781;BME280;6454;43.304;24.344;2024-02-26T11:00:04;99798.31;;;14.12;64.85
12781;BME280;6454;43.304;24.344;2024-02-26T11:02:32;99794.38;;;14.13;65.21
12781;BME280;6454;43.304;24.344;2024-02-26T11:05:02;99789.66;;;14.14;64.81
12781;BME280;6454;43.304;24.344;2024-02-26T11:07:30;99784.25;;;14.17;65.69
12781;BME280;6454;43.304;24.344;2024-02-26T11:09:56;99774.34;;;14.16;65.66
12781;BME280;6454;43.304;24.344;2024-02-26T11:12:23;99783.56;;;14.20;64.64
12781;BME280;6454;43.304;24.344;2024-02-26T11:14:50;99769.50;;;14.25;65.47
12781;BME280;6454;43.304;24.344;2024-02-26T11:17:21;99783.09;;;14.30;65.03
12781;BME280;6454;43.304;24.344;2024-02-26T11:19:49;99762.38;;;14.24;64.29
12781;BME280;6454;43.304;24.344;2024-02-26T11:22:15;99776.31;;;14.40;64.42
12781;BME280;6454;43.304;24.344;2024-02-26T11:24:41;99766.03;;;14.41;64.48
12781;BME280;6454;43.304;24.344;2024-02-26T11:27:09;99766.97;;;14.45;64.08
12781;BME280;6454;43.304;24.344;2024-02-26T11:29:47;99777.09;;;14.53;65.17
12781;BME280;6454;43.304;24.344;2024-02-26T11:32:13;99766.38;;;14.51;65.86
12781;BME280;6454;43.304;24.344;2024-02-26T11:34:40;99763.59;;;14.63;64.98
12781;BME280;6454;43.304;24.344;2024-02-26T11:37:18;99757.47;;;14.70;65.11
12781;BME280;6454;43.304;24.344;2024-02-26T11:39:45;99755.56;;;14.86;64.72
12781;BME280;6454;43.304;24.344;2024-02-26T11:42:14;99759.31;;;14.94;64.83
12781;BME280;6454;43.304;24.344;2024-02-26T11:44:40;99760.69;;;15.00;64.68
12781;BME280;6454;43.304;24.344;2024-02-26T11:47:17;99752.72;;;14.98;64.24
12781;BME280;6454;43.304;24.344;2024-02-26T11:49:43;99763.31;;;15.08;63.89
12781;BME280;6454;43.304;24.344;2024-02-26T11:52:10;99750.75;;;14.99;62.84
12781;BME280;6454;43.304;24.344;2024-02-26T11:57:29;99759.34;;;15.09;62.70
12781;BME280;6454;43.304;24.344;2024-02-26T11:59:56;99761.47;;;15.00;63.64
12781;BME280;6454;43.304;24.344;2024-02-26T12:02:45;99747.88;;;14.95;64.05
12781;BME280;6454;43.304;24.344;2024-02-26T12:05:14;99749.25;;;15.01;64.01
12781;BME280;6454;43.304;24.344;2024-02-26T12:07:45;99749.00;;;15.06;64.49
12781;BME280;6454;43.304;24.344;2024-02-26T12:10:25;99749.81;;;15.07;63.72
12781;BME280;6454;43.304;24.344;2024-02-26T12:12:58;99752.31;;;15.12;63.97
12781;BME280;6454;43.304;24.344;2024-02-26T12:15:26;99751.59;;;15.15;64.32
12781;BME280;6454;43.304;24.344;2024-02-26T12:17:56;99754.91;;;15.20;63.55
12781;BME280;6454;43.304;24.344;2024-02-26T12:20:21;99744.56;;;15.17;62.82
12781;BME280;6454;43.304;24.344;2024-02-26T12:22:47;99750.47;;;15.16;62.21
12781;BME280;6454;43.304;24.344;2024-02-26T12:25:15;99736.56;;;15.00;62.57
12781;BME280;6454;43.304;24.344;2024-02-26T12:27:41;99753.94;;;15.13;62.22
12781;BME280;6454;43.304;24.344;2024-02-26T12:30:07;99745.97;;;15.11;62.53
12781;BME280;6454;43.304;24.344;2024-02-26T12:32:33;99744.63;;;15.05;62.36
12781;BME280;6454;43.304;24.344;2024-02-26T12:34:59;99758.53;;;15.09;62.28
12781;BME280;6454;43.304;24.344;2024-02-26T12:37:27;99745.06;;;15.07;62.54
12781;BME280;6454;43.304;24.344;2024-02-26T12:39:53;99739.72;;;15.14;62.81
12781;BME280;6454;43.304;24.344;2024-02-26T12:42:19;99745.00;;;15.19;62.17
12781;BME280;6454;43.304;24.344;2024-02-26T12:44:46;99743.50;;;15.22;61.12
12781;BME280;6454;43.304;24.344;2024-02-26T12:47:12;99750.75;;;15.26;61.80
12781;BME280;6454;43.304;24.344;2024-02-26T12:49:42;99747.16;;;15.26;61.79
12781;BME280;6454;43.304;24.344;2024-02-26T12:52:09;99748.84;;;15.30;61.65
12781;BME280;6454;43.304;24.344;2024-02-26T12:54:35;99755.09;;;15.27;62.17
12781;BME280;6454;43.304;24.344;2024-02-26T12:57:05;99741.44;;;15.19;61.73
12781;BME280;6454;43.304;24.344;2024-02-26T12:59:32;99749.66;;;15.31;60.48
12781;BME280;6454;43.304;24.344;2024-02-26T13:01:58;99750.75;;;15.26;59.62
12781;BME280;6454;43.304;24.344;2024-02-26T13:04:26;99743.59;;;15.25;61.19
12781;BME280;6454;43.304;24.344;2024-02-26T13:06:53;99743.09;;;15.35;60.99
12781;BME280;6454;43.304;24.344;2024-02-26T13:09:18;99749.06;;;15.37;60.41